Bad Axe, MI (48413)

8:25 PM EST on February 05, 2016 (GMT -0500)
Thumb sunrise side | | Change Station
CLOSE
Current Station
Personal Weather Station
Location: Bad Axe, MI
Elevation: 758 ft
Nearby Weather Stations

Elev 758 ft 43.79 °N, 83.00 °W | Updated 4 minutes ago

Light Snow
Light Snow
29.3 °F
Feels Like 29 °F
N
1.1
Wind Variable Wind from WNW

Today
High -- | Low -- °F
--% Chance of Precip.
Yesterday
High -- | Low -- °F
Precip. -- in
Pressure 30.28 in
Visibility 10.0 miles
Clouds Scattered Clouds 700 ft
Overcast 2500 ft
Windchill 29 °F
Dew Point 28 °F
Humidity 94%
Rainfall 0.00 in
Snow Depth Not available.
7:44 AM 5:47 PM
Waning Crescent, 8% visible
METAR KBAX 060115Z AUTO 24003KT 10SM -SN SCT007 OVC025 M01/M02 A3028 RMK AO2 T10071019
Pressure 30.28 in
Visibility 10.0 miles
Clouds Scattered Clouds 700 ft
Overcast 2500 ft
Windchill 29 °F
Dew Point 28 °F
Humidity 94%
Rainfall 0.00 in
Snow Depth Not available.
7:44 AM 5:47 PM
Waning Crescent, 8% visible
METAR KBAX 060115Z AUTO 24003KT 10SM -SN SCT007 OVC025 M01/M02 A3028 RMK AO2 T10071019

10-Day Weather Forecast

Almanac

Astronomy

Feb. 05, 2016 Rise Set
Actual Time
Civil Twilight
Nautical Twilight
Astronomical Twilight
Moon
Length of Visible Light
Length of Day
Tomorrow will be .
, % of the Moon is Illuminated

Today's Extremes

State Highs State Lows

Community

WunderPhotos

Upload Photos

1,890,904 photos uploaded!

WunderBlog® & News

Nearby

Air Quality

  Air Quality AQ Index Pollutant
Not available.

Snow Depth

Station Depth Elevation

Earthquake Activity

City Distance Mag. Time & Date
Minimum magnitude displayed is 2.5.

Coastal Water Temperatures

Place Temperature

Stations

Nearby Weather Stations

Station Location Temp. Windchill Dew Point Humidity Wind Precip. Elev Updated Type
                   

Watches & Warnings

There are currently no watches in effect.